Christchurch, New Zealand
Current Conditions -  °F | °C
As of 6:30 AM on Friday 30 Jan 2015 (Local Time) from NZCH Reporting Station
Overcast Overcast  
Wind Chill: 61°   Ceiling: 2600
Heat Index: 61°   Visibility: 6mi
Dew Point: 61°   Wind: 3mph
Humidity: 100%   Direction: 310°NW
Pressure: 30"   Gusts: NA
Location:  43.53°S, 172.64°E
Report Text: NZCH 291830Z AUTO 31003KT 9999 SCT010/// SCT016/// OVC026///16/16 Q1016 TEMPO 6000 DZ BKN012
Loading
Personal Weather Stations






























Interactive Weather Map New forecast layout! Learn more

10-Day Weather Forecast

Advertisements
Track Severe Weather on mobile